createdAt,value
2018-09-05T00:00:55.942Z,101325.41
2018-09-05T00:03:24.860Z,101330.08
2018-09-05T00:05:53.754Z,101331.95
2018-09-05T00:08:22.638Z,101329.72
2018-09-05T00:10:51.539Z,101323.16
2018-09-05T00:13:27.874Z,101326.77
2018-09-05T00:16:09.183Z,101321.55
2018-09-05T00:18:38.089Z,101321.81
2018-09-05T00:21:06.982Z,101319.07
2018-09-05T00:23:35.930Z,101319.91
2018-09-05T00:26:05.107Z,101319.07
2018-09-05T00:28:34.043Z,101318.78
2018-09-05T00:31:03.057Z,101318.23
2018-09-05T00:36:25.118Z,101318.70
2018-09-05T00:39:10.486Z,101315.67
2018-09-05T00:41:51.776Z,101315.68
2018-09-05T00:44:20.716Z,101312.95
2018-09-05T00:46:49.610Z,101311.05
2018-09-05T00:49:31.965Z,101309.69
2018-09-05T00:52:14.352Z,101304.73
2018-09-05T00:54:48.189Z,101307.19
2018-09-05T00:57:23.218Z,101315.09
2018-09-05T00:59:55.782Z,101312.89
2018-09-05T01:02:24.650Z,101308.27
2018-09-05T01:04:54.585Z,101309.89
2018-09-05T01:07:27.683Z,101307.69
2018-09-05T01:09:56.566Z,101300.53
2018-09-05T01:12:25.969Z,101303.56
2018-09-05T01:14:55.384Z,101307.94
2018-09-05T01:17:26.316Z,101300.28
2018-09-05T01:20:13.741Z,101300.50
2018-09-05T01:22:42.635Z,101308.68
2018-09-05T01:25:11.529Z,101305.11
2018-09-05T01:27:40.455Z,101305.69
2018-09-05T01:30:28.677Z,101305.11
2018-09-05T01:32:58.894Z,101306.19
2018-09-05T01:35:27.979Z,101310.27
2018-09-05T01:37:57.218Z,101307.80
2018-09-05T01:40:26.256Z,101305.30
2018-09-05T01:43:02.879Z,101308.31
2018-09-05T01:45:31.799Z,101307.17
2018-09-05T01:48:00.713Z,101306.64
2018-09-05T01:50:49.473Z,101311.02
2018-09-05T01:53:34.842Z,101297.09
2018-09-05T01:56:04.930Z,101300.09
2018-09-05T01:58:33.824Z,101297.08
2018-09-05T02:01:02.851Z,101299.25
2018-09-05T02:03:51.690Z,101296.25
2018-09-05T02:06:21.686Z,101296.80
2018-09-05T02:08:54.147Z,101290.77
2018-09-05T02:11:23.025Z,101301.66
2018-09-05T02:14:14.698Z,101294.02
2018-09-05T02:16:43.816Z,101297.56
2018-09-05T02:19:12.716Z,101302.22
2018-09-05T02:24:35.910Z,101304.36
2018-09-05T02:27:05.068Z,101306.27
2018-09-05T02:29:34.002Z,101304.31
2018-09-05T02:32:03.291Z,101301.91
2018-09-05T02:34:32.162Z,101298.66
2018-09-05T02:37:01.067Z,101303.84
2018-09-05T02:39:44.208Z,101301.40
2018-09-05T02:42:25.401Z,101295.66
2018-09-05T02:44:54.408Z,101296.73
2018-09-05T02:47:23.249Z,101295.09
2018-09-05T02:50:14.556Z,101296.19
2018-09-05T02:52:43.481Z,101296.45
2018-09-05T02:55:16.584Z,101297.55
2018-09-05T02:57:45.463Z,101294.00
2018-09-05T03:00:14.365Z,101292.91
2018-09-05T03:02:45.281Z,101295.64
2018-09-05T03:05:14.190Z,101294.82
2018-09-05T03:07:43.080Z,101285.83
2018-09-05T03:10:18.009Z,101287.75
2018-09-05T03:12:46.896Z,101287.45
2018-09-05T03:15:19.947Z,101288.81
2018-09-05T03:17:48.905Z,101287.75
2018-09-05T03:20:17.829Z,101292.34
2018-09-05T03:22:50.168Z,101292.90
2018-09-05T03:28:26.122Z,101296.42
2018-09-05T03:30:55.026Z,101291.53
2018-09-05T03:33:23.918Z,101299.43
2018-09-05T03:35:52.884Z,101297.78
2018-09-05T03:38:21.816Z,101297.78
2018-09-05T03:40:50.736Z,101299.72
2018-09-05T03:43:23.973Z,101294.27
2018-09-05T03:45:57.915Z,101302.66
2018-09-05T03:48:26.854Z,101303.80
2018-09-05T03:51:02.047Z,101305.99
2018-09-05T03:53:31.019Z,101308.20
2018-09-05T03:56:03.901Z,101310.10
2018-09-05T03:58:38.677Z,101300.26
2018-09-05T04:01:08.607Z,101308.15
2018-09-05T04:03:37.493Z,101312.23
2018-09-05T04:06:08.503Z,101312.02
2018-09-05T04:08:47.098Z,101311.20
2018-09-05T04:11:23.560Z,101315.28
2018-09-05T04:13:59.473Z,101307.93
2018-09-05T04:16:28.382Z,101313.38
2018-09-05T04:19:05.261Z,101307.09
2018-09-05T04:21:34.257Z,101307.95
2018-09-05T04:24:09.409Z,101301.94
2018-09-05T04:26:50.410Z,101300.05
2018-09-05T04:29:41.559Z,101300.61
2018-09-05T04:32:11.517Z,101299.80
2018-09-05T04:34:41.530Z,101296.02
2018-09-05T04:37:10.516Z,101303.61
2018-09-05T04:39:43.317Z,101301.45
2018-09-05T04:45:06.177Z,101299.53
2018-09-05T04:47:48.218Z,101300.09
2018-09-05T04:50:25.432Z,101300.64
2018-09-05T04:52:54.421Z,101308.28
2018-09-05T04:55:23.312Z,101305.81
2018-09-05T04:57:52.288Z,101302.86
2018-09-05T05:00:21.183Z,101299.05
2018-09-05T05:02:50.223Z,101305.64
2018-09-05T05:05:19.138Z,101305.08
2018-09-05T05:07:50.059Z,101305.38
2018-09-05T05:10:28.806Z,101313.02
2018-09-05T05:12:57.704Z,101308.41
2018-09-05T05:15:26.608Z,101308.66
2018-09-05T05:17:59.304Z,101310.31
2018-09-05T05:20:28.220Z,101311.96
2018-09-05T05:23:09.477Z,101321.20
2018-09-05T05:25:40.523Z,101317.69
2018-09-05T05:28:21.779Z,101318.78
2018-09-05T05:30:57.976Z,101325.60
2018-09-05T05:33:29.248Z,101322.56
2018-09-05T05:36:34.588Z,101318.77
2018-09-05T05:39:16.860Z,101321.78
2018-09-05T05:41:45.813Z,101332.39
2018-09-05T05:44:18.572Z,101335.69
2018-09-05T05:47:05.144Z,101332.15
2018-09-05T05:49:39.883Z,101337.09
2018-09-05T05:52:15.179Z,101339.84
2018-09-05T05:57:39.209Z,101342.03
2018-09-05T06:00:09.172Z,101339.63
2018-09-05T06:02:44.969Z,101345.64
2018-09-05T06:05:13.892Z,101339.69
2018-09-05T06:07:42.876Z,101349.23
2018-09-05T06:10:12.795Z,101341.34
2018-09-05T06:12:51.226Z,101340.25
2018-09-05T06:15:20.097Z,101348.72
2018-09-05T06:17:49.130Z,101348.70
2018-09-05T06:20:21.312Z,101350.64
2018-09-05T06:23:00.633Z,101353.91
2018-09-05T06:25:29.545Z,101355.84
2018-09-05T06:28:05.857Z,101350.41
2018-09-05T06:30:54.220Z,101353.13
2018-09-05T06:33:23.111Z,101358.87
2018-09-05T06:35:52.016Z,101355.37
2018-09-05T06:38:20.919Z,101356.73
2018-09-05T06:40:49.879Z,101359.20
2018-09-05T06:43:18.884Z,101355.63
2018-09-05T06:45:48.625Z,101360.87
2018-09-05T06:48:29.865Z,101359.52
2018-09-05T06:51:02.988Z,101354.59
2018-09-05T06:53:31.899Z,101359.26
2018-09-05T06:56:00.809Z,101361.77
2018-09-05T06:58:37.078Z,101363.16
2018-09-05T07:01:07.016Z,101360.42
2018-09-05T07:03:42.517Z,101364.50
2018-09-05T07:06:17.119Z,101363.16
2018-09-05T07:08:46.013Z,101371.09
2018-09-05T07:11:14.912Z,101368.64
2018-09-05T07:13:43.807Z,101372.46
2018-09-05T07:16:13.446Z,101362.91
2018-09-05T07:18:47.419Z,101364.56
2018-09-05T07:21:16.336Z,101358.30
2018-09-05T07:23:45.243Z,101368.41
2018-09-05T07:26:18.658Z,101369.50
2018-09-05T07:28:47.510Z,101357.50
2018-09-05T07:31:16.393Z,101362.44
2018-09-05T07:33:51.263Z,101359.16
2018-09-05T07:36:20.285Z,101361.09
2018-09-05T07:38:53.640Z,101360.00
2018-09-05T07:41:22.625Z,101364.35
2018-09-05T07:43:51.596Z,101365.73
2018-09-05T07:46:24.306Z,101361.63
2018-09-05T07:48:53.196Z,101364.93
2018-09-05T07:51:22.090Z,101364.94
2018-09-05T07:54:04.326Z,101367.39
2018-09-05T07:56:33.694Z,101370.41
2018-09-05T07:59:18.910Z,101367.98
2018-09-05T08:01:52.725Z,101364.17
2018-09-05T08:04:23.732Z,101371.53
2018-09-05T08:06:52.734Z,101366.34
2018-09-05T08:12:22.216Z,101367.70
2018-09-05T08:14:51.143Z,101361.14
2018-09-05T08:17:20.057Z,101361.41
2018-09-05T08:19:49.056Z,101363.04
2018-09-05T08:22:19.043Z,101366.58
2018-09-05T08:24:48.365Z,101363.55
2018-09-05T08:27:34.094Z,101366.84
2018-09-05T08:30:03.091Z,101359.98
2018-09-05T08:32:35.692Z,101359.14
2018-09-05T08:35:09.772Z,101363.53
2018-09-05T08:37:38.672Z,101359.11
2018-09-05T08:40:10.860Z,101348.72
2018-09-05T08:42:39.802Z,101348.98
2018-09-05T08:45:11.947Z,101353.88
2018-09-05T08:47:46.566Z,101353.86
2018-09-05T08:50:23.218Z,101356.33
2018-09-05T08:53:10.201Z,101348.33
2018-09-05T08:55:57.926Z,101350.78
2018-09-05T08:58:27.875Z,101353.22
2018-09-05T09:01:15.032Z,101352.62
2018-09-05T09:03:47.483Z,101353.96
2018-09-05T09:06:16.471Z,101348.73
2018-09-05T09:08:51.777Z,101349.48
2018-09-05T09:11:27.573Z,101351.06
2018-09-05T09:13:56.559Z,101351.54
2018-09-05T09:16:33.270Z,101356.98
2018-09-05T09:19:07.841Z,101355.03
2018-09-05T09:21:40.704Z,101345.16
2018-09-05T09:24:10.841Z,101347.66
2018-09-05T09:26:44.588Z,101346.27
2018-09-05T09:29:13.561Z,101347.60
2018-09-05T09:31:42.531Z,101343.78
2018-09-05T09:34:11.475Z,101342.56
2018-09-05T09:36:47.628Z,101337.58
2018-09-05T09:39:18.584Z,101343.31
2018-09-05T09:41:52.904Z,101341.94
2018-09-05T09:44:21.873Z,101337.20
2018-09-05T09:46:53.158Z,101331.91
2018-09-05T09:49:26.597Z,101338.50
2018-09-05T09:52:05.930Z,101333.58
2018-09-05T09:54:52.654Z,101333.06
2018-09-05T09:57:21.837Z,101328.47
2018-09-05T09:59:56.772Z,101327.61
2018-09-05T10:02:32.084Z,101327.18
2018-09-05T10:05:07.304Z,101324.38
2018-09-05T10:07:41.704Z,101322.70
2018-09-05T10:10:16.281Z,101324.62
2018-09-05T10:12:50.251Z,101320.17
2018-09-05T10:15:26.792Z,101306.34
2018-09-05T10:18:01.201Z,101314.76
2018-09-05T10:20:35.146Z,101306.45
2018-09-05T10:23:08.309Z,101306.11
2018-09-05T10:25:38.210Z,101303.56
2018-09-05T10:28:13.544Z,101304.20
2018-09-05T10:30:42.431Z,101298.61
2018-09-05T10:33:11.358Z,101295.66
2018-09-05T10:35:43.652Z,101293.16
2018-09-05T10:38:15.782Z,101295.50
2018-09-05T10:40:45.085Z,101287.52
2018-09-05T10:43:13.980Z,101288.29
2018-09-05T10:45:42.874Z,101285.08
2018-09-05T10:48:11.976Z,101290.38
2018-09-05T10:50:40.951Z,101290.81
2018-09-05T10:53:10.030Z,101293.83
2018-09-05T10:55:49.552Z,101290.91
2018-09-05T10:58:18.447Z,101288.11
2018-09-05T11:00:47.332Z,101286.82
2018-09-05T11:03:23.153Z,101281.31
2018-09-05T11:05:52.097Z,101281.31
2018-09-05T11:08:35.394Z,101277.58
2018-09-05T11:11:09.420Z,101276.34
2018-09-05T11:13:43.553Z,101270.72
2018-09-05T11:16:13.564Z,101270.78
2018-09-05T11:18:42.592Z,101269.30
2018-09-05T11:21:11.684Z,101266.20
2018-09-05T11:23:40.774Z,101265.32
2018-09-05T11:26:09.945Z,101265.84
2018-09-05T11:28:38.816Z,101260.96
2018-09-05T11:31:08.274Z,101256.17
2018-09-05T11:33:43.027Z,101260.34
2018-09-05T11:36:16.731Z,101257.84
2018-09-05T11:38:47.682Z,101249.91
2018-09-05T11:41:16.671Z,101256.44
2018-09-05T11:43:45.599Z,101258.03
2018-09-05T11:46:17.964Z,101248.23
2018-09-05T11:48:46.951Z,101251.30
2018-09-05T11:51:26.529Z,101252.41
2018-09-05T11:54:11.846Z,101248.06
2018-09-05T11:56:41.819Z,101242.17
2018-09-05T11:59:12.775Z,101245.05
2018-09-05T12:01:49.338Z,101243.56
2018-09-05T12:04:19.215Z,101236.00
2018-09-05T12:06:48.335Z,101240.40
2018-09-05T12:09:17.599Z,101232.63
2018-09-05T12:11:54.837Z,101242.68
2018-09-05T12:14:25.777Z,101249.56
2018-09-05T12:16:54.669Z,101252.32
2018-09-05T12:19:23.673Z,101237.95
2018-09-05T12:21:52.619Z,101238.28
2018-09-05T12:24:21.518Z,101236.31
2018-09-05T12:27:00.687Z,101234.83
2018-09-05T12:29:32.998Z,101232.67
2018-09-05T12:32:02.003Z,101228.86
2018-09-05T12:34:35.201Z,101230.02
2018-09-05T12:37:10.737Z,101231.66
2018-09-05T12:39:46.463Z,101226.83
2018-09-05T12:42:15.320Z,101221.95
2018-09-05T12:44:49.275Z,101221.10
2018-09-05T12:47:18.194Z,101217.56
2018-09-05T12:49:48.141Z,101217.55
2018-09-05T12:52:17.228Z,101214.80
2018-09-05T12:54:47.302Z,101213.58
2018-09-05T12:57:20.577Z,101214.70
2018-09-05T12:59:50.588Z,101208.48
2018-09-05T13:02:20.552Z,101212.23
2018-09-05T13:04:49.530Z,101212.55
2018-09-05T13:07:18.655Z,101207.50
2018-09-05T13:09:49.049Z,101200.70
2018-09-05T13:12:19.085Z,101204.88
2018-09-05T13:14:48.055Z,101202.64
2018-09-05T13:17:17.019Z,101203.08
2018-09-05T13:19:45.902Z,101200.60
2018-09-05T13:22:14.816Z,101201.06
2018-09-05T13:24:45.875Z,101190.05
2018-09-05T13:27:18.692Z,101193.11
2018-09-05T13:29:47.713Z,101187.31
2018-09-05T13:32:16.733Z,101184.75
2018-09-05T13:34:49.782Z,101182.09
2018-09-05T13:37:18.842Z,101177.02
2018-09-05T13:39:47.746Z,101185.33
2018-09-05T13:42:17.699Z,101174.28
2018-09-05T13:44:46.702Z,101168.66
2018-09-05T13:47:15.684Z,101178.03
2018-09-05T13:49:45.915Z,101170.66
2018-09-05T13:52:18.146Z,101171.70
2018-09-05T13:54:47.655Z,101171.03
2018-09-05T13:57:18.813Z,101174.73
2018-09-05T13:59:48.013Z,101167.60
2018-09-05T14:02:19.404Z,101164.44
2018-09-05T14:04:50.945Z,101162.59
2018-09-05T14:07:19.880Z,101154.58
2018-09-05T14:09:50.838Z,101155.14
2018-09-05T14:12:20.889Z,101147.27
2018-09-05T14:14:50.897Z,101150.88
2018-09-05T14:17:25.174Z,101145.81
2018-09-05T14:19:55.127Z,101146.92
2018-09-05T14:22:24.131Z,101148.23
2018-09-05T14:24:57.839Z,101143.39
2018-09-05T14:27:26.925Z,101148.27
2018-09-05T14:29:56.893Z,101136.75
2018-09-05T14:32:27.900Z,101141.51
2018-09-05T14:34:57.976Z,101135.65
2018-09-05T14:37:36.955Z,101135.33
2018-09-05T14:40:06.938Z,101130.46
2018-09-05T14:42:49.366Z,101133.91
2018-09-05T14:45:22.688Z,101130.46
2018-09-05T14:47:52.717Z,101137.17
2018-09-05T14:50:25.295Z,101133.73
2018-09-05T14:52:55.234Z,101133.21
2018-09-05T14:55:24.273Z,101135.39
2018-09-05T14:57:54.259Z,101126.84
2018-09-05T15:00:25.177Z,101126.45
2018-09-05T15:02:57.147Z,101128.81
2018-09-05T15:05:27.424Z,101122.31
2018-09-05T15:08:06.907Z,101121.58
2018-09-05T15:10:41.934Z,101118.68
2018-09-05T15:13:11.999Z,101121.74
2018-09-05T15:15:40.961Z,101109.27
2018-09-05T15:18:11.957Z,101114.40
2018-09-05T15:20:41.932Z,101109.66
2018-09-05T15:23:12.418Z,101112.89
2018-09-05T15:25:42.760Z,101105.39
2018-09-05T15:28:12.685Z,101107.06
2018-09-05T15:30:48.161Z,101100.16
2018-09-05T15:33:18.136Z,101100.75
2018-09-05T15:35:51.847Z,101093.53
2018-09-05T15:38:20.843Z,101088.47
2018-09-05T15:40:50.908Z,101096.36
2018-09-05T15:43:21.889Z,101087.47
2018-09-05T15:45:52.808Z,101083.81
2018-09-05T15:48:21.818Z,101086.77
2018-09-05T15:50:55.792Z,101082.44
2018-09-05T15:53:25.024Z,101083.20
2018-09-05T15:55:56.294Z,101085.39
2018-09-05T15:58:25.317Z,101080.26
2018-09-05T16:01:01.703Z,101080.77
2018-09-05T16:03:30.675Z,101076.32
2018-09-05T16:05:59.743Z,101076.70
2018-09-05T16:08:32.340Z,101072.83
2018-09-05T16:11:14.092Z,101071.13
2018-09-05T16:13:48.167Z,101077.25
2018-09-05T16:16:18.332Z,101071.86
2018-09-05T16:18:49.745Z,101069.73
2018-09-05T16:21:19.775Z,101070.35
2018-09-05T16:23:50.081Z,101071.98
2018-09-05T16:26:27.117Z,101069.11
2018-09-05T16:28:57.106Z,101066.34
2018-09-05T16:31:30.413Z,101070.13
2018-09-05T16:34:01.316Z,101067.63
2018-09-05T16:36:30.276Z,101067.78
2018-09-05T16:39:09.561Z,101063.05
2018-09-05T16:41:41.315Z,101060.13
2018-09-05T16:44:10.948Z,101067.52
2018-09-05T16:46:40.194Z,101058.38
2018-09-05T16:49:10.168Z,101065.06
2018-09-05T16:51:39.149Z,101058.17
2018-09-05T16:54:10.119Z,101061.86
2018-09-05T16:56:41.095Z,101065.36
2018-09-05T16:59:10.031Z,101060.34
2018-09-05T17:01:41.013Z,101060.69
2018-09-05T17:04:13.773Z,101058.25
2018-09-05T17:06:47.602Z,101057.56
2018-09-05T17:09:21.841Z,101060.31
2018-09-05T17:11:50.860Z,101062.55
2018-09-05T17:14:20.823Z,101058.53
2018-09-05T17:16:50.874Z,101058.62
2018-09-05T17:19:25.934Z,101057.81
2018-09-05T17:21:56.889Z,101062.75
2018-09-05T17:24:26.923Z,101062.48
2018-09-05T17:26:55.913Z,101063.11
2018-09-05T17:29:24.959Z,101065.23
2018-09-05T17:31:54.903Z,101068.21
2018-09-05T17:34:26.007Z,101063.48
2018-09-05T17:36:55.976Z,101067.72
2018-09-05T17:39:28.402Z,101076.41
2018-09-05T17:42:04.727Z,101072.53
2018-09-05T17:44:38.345Z,101080.27
2018-09-05T17:47:07.325Z,101075.52
2018-09-05T17:49:40.491Z,101074.97
2018-09-05T17:52:18.927Z,101078.13
2018-09-05T17:54:53.233Z,101073.44
2018-09-05T17:57:22.266Z,101078.47
2018-09-05T17:59:51.205Z,101082.45
2018-09-05T18:02:20.538Z,101077.97
2018-09-05T18:04:49.463Z,101081.63
2018-09-05T18:07:18.383Z,101077.66
2018-09-05T18:09:47.432Z,101085.16
2018-09-05T18:12:16.354Z,101080.86
2018-09-05T18:14:47.339Z,101084.31
2018-09-05T18:17:17.474Z,101079.66
2018-09-05T18:19:50.734Z,101078.91
2018-09-05T18:22:19.702Z,101078.69
2018-09-05T18:24:48.899Z,101074.34
2018-09-05T18:27:18.834Z,101070.05
2018-09-05T18:29:47.838Z,101078.65
2018-09-05T18:32:17.806Z,101072.62
2018-09-05T18:34:48.323Z,101072.13
2018-09-05T18:37:17.273Z,101068.59
2018-09-05T18:39:48.206Z,101074.73
2018-09-05T18:42:19.236Z,101077.27
2018-09-05T18:44:49.229Z,101082.54
2018-09-05T18:47:22.484Z,101078.16
2018-09-05T18:49:55.321Z,101082.62
2018-09-05T18:52:24.325Z,101077.78
2018-09-05T18:55:04.566Z,101081.68
2018-09-05T18:57:39.277Z,101082.29
2018-09-05T19:00:21.892Z,101082.91
2018-09-05T19:03:07.385Z,101081.91
2018-09-05T19:05:40.975Z,101084.73
2018-09-05T19:08:09.960Z,101087.52
2018-09-05T19:10:38.905Z,101081.53
2018-09-05T19:13:07.870Z,101081.88
2018-09-05T19:15:49.243Z,101076.45
2018-09-05T19:18:28.112Z,101076.83
2018-09-05T19:21:01.417Z,101080.45
2018-09-05T19:23:55.146Z,101066.56
2018-09-05T19:26:31.332Z,101068.57
2018-09-05T19:29:10.942Z,101070.28
2018-09-05T19:31:47.648Z,101068.97
2018-09-05T19:34:24.456Z,101072.05
2018-09-05T19:36:53.432Z,101075.13
2018-09-05T19:39:22.393Z,101075.16
2018-09-05T19:41:54.541Z,101071.07
2018-09-05T19:44:46.369Z,101074.71
2018-09-05T19:47:15.398Z,101071.73
2018-09-05T19:49:48.134Z,101079.19
2018-09-05T19:52:35.163Z,101076.17
2018-09-05T19:57:58.698Z,101070.48
2018-09-05T20:00:29.600Z,101065.32
2018-09-05T20:02:58.852Z,101068.36
2018-09-05T20:05:27.790Z,101067.34
2018-09-05T20:08:00.260Z,101072.80
2018-09-05T20:10:30.241Z,101069.55
2018-09-05T20:13:02.979Z,101070.08
2018-09-05T20:15:40.254Z,101059.47
2018-09-05T20:21:02.970Z,101063.60
2018-09-05T20:23:35.504Z,101067.44
2018-09-05T20:26:21.307Z,101063.91
2018-09-05T20:29:08.346Z,101056.45
2018-09-05T20:31:38.326Z,101056.13
2018-09-05T20:34:13.258Z,101058.92
2018-09-05T20:36:42.203Z,101065.62
2018-09-05T20:42:14.818Z,101068.36
2018-09-05T20:44:50.519Z,101069.91
2018-09-05T20:47:19.573Z,101065.30
2018-09-05T20:49:48.506Z,101071.05
2018-09-05T20:52:22.442Z,101066.72
2018-09-05T20:54:51.300Z,101069.19
2018-09-05T21:00:23.674Z,101065.88
2018-09-05T21:02:52.605Z,101060.94
2018-09-05T21:05:22.615Z,101062.88
2018-09-05T21:07:51.502Z,101057.92
2018-09-05T21:10:20.362Z,101055.27
2018-09-05T21:12:50.066Z,101048.44
2018-09-05T21:15:29.081Z,101046.77
2018-09-05T21:18:07.691Z,101047.05
2018-09-05T21:20:36.570Z,101038.82
2018-09-05T21:23:15.429Z,101039.95
2018-09-05T21:25:54.379Z,101037.48
2018-09-05T21:28:33.413Z,101037.18
2018-09-05T21:31:02.450Z,101030.95
2018-09-05T21:33:38.356Z,101036.67
2018-09-05T21:36:24.399Z,101030.36
2018-09-05T21:41:50.123Z,101023.32
2018-09-05T21:44:25.525Z,101020.84
2018-09-05T21:46:54.420Z,101025.17
2018-09-05T21:49:35.343Z,101028.19
2018-09-05T21:52:10.593Z,101021.88
2018-09-05T21:57:38.582Z,101024.34
2018-09-05T22:00:10.749Z,101024.88
2018-09-05T22:02:39.663Z,101024.34
2018-09-05T22:05:08.723Z,101023.80
2018-09-05T22:10:32.160Z,101025.93
2018-09-05T22:13:06.594Z,101028.08
2018-09-05T22:15:54.067Z,101020.69
2018-09-05T22:18:25.091Z,101025.66
2018-09-05T22:21:01.931Z,101030.04
2018-09-05T22:26:24.338Z,101025.98
2018-09-05T22:28:59.180Z,101021.06
2018-09-05T22:31:32.346Z,101027.08
2018-09-05T22:34:01.243Z,101035.01
2018-09-05T22:36:30.448Z,101027.08
2018-09-05T22:39:02.620Z,101030.67
2018-09-05T22:41:43.890Z,101029.61
2018-09-05T22:45:21.575Z,101028.56
2018-09-05T22:48:05.611Z,101027.97
2018-09-05T22:51:22.402Z,101026.59
2018-09-05T22:57:08.138Z,101029.14
2018-09-05T22:59:50.631Z,101042.65
2018-09-05T23:04:40.519Z,101044.82
2018-09-05T23:07:22.650Z,101054.07
2018-09-05T23:10:02.795Z,101049.11
2018-09-05T23:15:38.045Z,101055.91
2018-09-05T23:18:49.591Z,101050.42
2018-09-05T23:21:26.737Z,101041.94
2018-09-05T23:24:09.905Z,101038.62
2018-09-05T23:26:42.669Z,101042.50
2018-09-05T23:29:12.959Z,101043.30
2018-09-05T23:31:41.868Z,101036.78
2018-09-05T23:34:14.178Z,101043.11
2018-09-05T23:36:48.808Z,101039.05
2018-09-05T23:39:17.729Z,101037.41
2018-09-05T23:41:59.284Z,101026.74
2018-09-05T23:44:32.280Z,101019.39
2018-09-05T23:47:01.180Z,101024.05
2018-09-05T23:49:32.113Z,101033.66
2018-09-05T23:54:55.589Z,101031.27
2018-09-05T23:57:44.027Z,101029.64
